sensor_id;sensor_type;location;lat;lon;timestamp;P1;durP1;ratioP1;P2;durP2;ratioP2
1026;SDS011;502;48.746;9.214;2023-03-14T00:01:10;1.00;;;0.50;;
1026;SDS011;502;48.746;9.214;2023-03-14T00:03:38;0.87;;;0.30;;
1026;SDS011;502;48.746;9.214;2023-03-14T00:06:05;0.90;;;0.40;;
1026;SDS011;502;48.746;9.214;2023-03-14T00:08:32;1.00;;;0.40;;
1026;SDS011;502;48.746;9.214;2023-03-14T00:11:03;1.40;;;0.60;;
1026;SDS011;502;48.746;9.214;2023-03-14T00:13:31;1.00;;;0.50;;
1026;SDS011;502;48.746;9.214;2023-03-14T00:16:07;0.90;;;0.50;;
1026;SDS011;502;48.746;9.214;2023-03-14T00:18:35;1.03;;;0.43;;
1026;SDS011;502;48.746;9.214;2023-03-14T00:21:02;1.40;;;0.50;;
1026;SDS011;502;48.746;9.214;2023-03-14T00:23:31;1.10;;;0.70;;
1026;SDS011;502;48.746;9.214;2023-03-14T00:25:58;1.27;;;0.60;;
1026;SDS011;502;48.746;9.214;2023-03-14T00:28:26;1.50;;;0.57;;
1026;SDS011;502;48.746;9.214;2023-03-14T00:30:53;1.37;;;0.60;;
1026;SDS011;502;48.746;9.214;2023-03-14T00:33:21;1.00;;;0.50;;
1026;SDS011;502;48.746;9.214;2023-03-14T00:35:52;1.43;;;0.53;;
1026;SDS011;502;48.746;9.214;2023-03-14T00:38:20;1.00;;;0.60;;
1026;SDS011;502;48.746;9.214;2023-03-14T00:40:46;1.57;;;0.50;;
1026;SDS011;502;48.746;9.214;2023-03-14T00:43:13;1.43;;;0.47;;
1026;SDS011;502;48.746;9.214;2023-03-14T00:45:40;1.40;;;0.47;;
1026;SDS011;502;48.746;9.214;2023-03-14T00:48:06;1.40;;;1.20;;
1026;SDS011;502;48.746;9.214;2023-03-14T00:50:34;1.73;;;0.50;;
1026;SDS011;502;48.746;9.214;2023-03-14T00:53:01;1.27;;;0.80;;
1026;SDS011;502;48.746;9.214;2023-03-14T00:55:28;1.77;;;0.57;;
1026;SDS011;502;48.746;9.214;2023-03-14T00:57:55;1.03;;;0.60;;
1026;SDS011;502;48.746;9.214;2023-03-14T01:00:21;1.00;;;0.47;;
1026;SDS011;502;48.746;9.214;2023-03-14T01:02:49;1.23;;;0.60;;
1026;SDS011;502;48.746;9.214;2023-03-14T01:05:15;1.20;;;0.70;;
1026;SDS011;502;48.746;9.214;2023-03-14T01:07:44;1.00;;;0.40;;
1026;SDS011;502;48.746;9.214;2023-03-14T01:10:10;0.80;;;0.43;;
1026;SDS011;502;48.746;9.214;2023-03-14T01:12:37;0.83;;;0.43;;
1026;SDS011;502;48.746;9.214;2023-03-14T01:15:07;0.80;;;0.40;;
1026;SDS011;502;48.746;9.214;2023-03-14T01:17:35;1.00;;;0.50;;
1026;SDS011;502;48.746;9.214;2023-03-14T01:20:03;0.80;;;0.40;;
1026;SDS011;502;48.746;9.214;2023-03-14T01:22:31;0.97;;;0.30;;
1026;SDS011;502;48.746;9.214;2023-03-14T01:24:59;1.60;;;0.50;;
1026;SDS011;502;48.746;9.214;2023-03-14T01:27:26;0.90;;;0.40;;
1026;SDS011;502;48.746;9.214;2023-03-14T01:29:53;0.90;;;0.40;;
1026;SDS011;502;48.746;9.214;2023-03-14T01:32:19;1.20;;;0.40;;
1026;SDS011;502;48.746;9.214;2023-03-14T01:34:46;0.90;;;0.30;;
1026;SDS011;502;48.746;9.214;2023-03-14T01:37:13;0.90;;;0.50;;
1026;SDS011;502;48.746;9.214;2023-03-14T01:39:40;1.20;;;0.60;;
1026;SDS011;502;48.746;9.214;2023-03-14T01:42:08;1.10;;;0.60;;
1026;SDS011;502;48.746;9.214;2023-03-14T01:44:51;0.80;;;0.40;;
1026;SDS011;502;48.746;9.214;2023-03-14T01:47:19;1.10;;;0.40;;
1026;SDS011;502;48.746;9.214;2023-03-14T01:49:46;0.80;;;0.40;;
1026;SDS011;502;48.746;9.214;2023-03-14T01:52:16;1.70;;;0.70;;
1026;SDS011;502;48.746;9.214;2023-03-14T01:54:46;0.80;;;0.37;;
1026;SDS011;502;48.746;9.214;2023-03-14T01:57:16;0.90;;;0.40;;
1026;SDS011;502;48.746;9.214;2023-03-14T01:59:45;1.13;;;0.50;;
1026;SDS011;502;48.746;9.214;2023-03-14T02:02:14;1.53;;;0.50;;
1026;SDS011;502;48.746;9.214;2023-03-14T02:04:42;1.30;;;0.53;;
1026;SDS011;502;48.746;9.214;2023-03-14T02:07:12;0.70;;;0.30;;
1026;SDS011;502;48.746;9.214;2023-03-14T02:09:49;0.80;;;0.40;;
1026;SDS011;502;48.746;9.214;2023-03-14T02:12:23;0.80;;;0.30;;
1026;SDS011;502;48.746;9.214;2023-03-14T02:15:08;1.20;;;0.40;;
1026;SDS011;502;48.746;9.214;2023-03-14T02:17:49;1.53;;;0.50;;
1026;SDS011;502;48.746;9.214;2023-03-14T02:20:47;0.80;;;0.30;;
1026;SDS011;502;48.746;9.214;2023-03-14T02:23:19;0.70;;;0.30;;
1026;SDS011;502;48.746;9.214;2023-03-14T02:25:51;1.20;;;0.40;;
1026;SDS011;502;48.746;9.214;2023-03-14T02:28:22;0.93;;;0.50;;
1026;SDS011;502;48.746;9.214;2023-03-14T02:30:52;1.00;;;0.40;;
1026;SDS011;502;48.746;9.214;2023-03-14T02:33:20;0.73;;;0.30;;
1026;SDS011;502;48.746;9.214;2023-03-14T02:35:49;0.70;;;0.30;;
1026;SDS011;502;48.746;9.214;2023-03-14T02:38:19;0.80;;;0.43;;
1026;SDS011;502;48.746;9.214;2023-03-14T02:40:49;1.10;;;0.60;;
1026;SDS011;502;48.746;9.214;2023-03-14T02:43:17;1.20;;;0.33;;
1026;SDS011;502;48.746;9.214;2023-03-14T02:45:51;1.00;;;0.40;;
1026;SDS011;502;48.746;9.214;2023-03-14T02:48:21;0.70;;;0.30;;
1026;SDS011;502;48.746;9.214;2023-03-14T02:50:50;0.90;;;0.40;;
1026;SDS011;502;48.746;9.214;2023-03-14T02:53:20;0.83;;;0.37;;
1026;SDS011;502;48.746;9.214;2023-03-14T02:55:51;1.40;;;0.50;;
1026;SDS011;502;48.746;9.214;2023-03-14T02:58:21;1.53;;;0.40;;
1026;SDS011;502;48.746;9.214;2023-03-14T03:00:53;0.90;;;0.30;;
1026;SDS011;502;48.746;9.214;2023-03-14T03:03:22;0.90;;;0.40;;
1026;SDS011;502;48.746;9.214;2023-03-14T03:05:49;1.00;;;0.30;;
1026;SDS011;502;48.746;9.214;2023-03-14T03:08:16;1.67;;;1.10;;
1026;SDS011;502;48.746;9.214;2023-03-14T03:10:43;2.33;;;0.60;;
1026;SDS011;502;48.746;9.214;2023-03-14T03:13:10;2.03;;;0.40;;
1026;SDS011;502;48.746;9.214;2023-03-14T03:15:38;1.10;;;0.50;;
1026;SDS011;502;48.746;9.214;2023-03-14T03:18:07;0.80;;;0.50;;
1026;SDS011;502;48.746;9.214;2023-03-14T03:20:34;1.10;;;0.50;;
1026;SDS011;502;48.746;9.214;2023-03-14T03:23:00;1.10;;;0.57;;
1026;SDS011;502;48.746;9.214;2023-03-14T03:25:27;0.83;;;0.40;;
1026;SDS011;502;48.746;9.214;2023-03-14T03:27:55;1.40;;;0.50;;
1026;SDS011;502;48.746;9.214;2023-03-14T03:30:21;1.13;;;0.50;;
1026;SDS011;502;48.746;9.214;2023-03-14T03:32:48;1.10;;;0.60;;
1026;SDS011;502;48.746;9.214;2023-03-14T03:35:17;1.00;;;0.40;;
1026;SDS011;502;48.746;9.214;2023-03-14T03:37:44;1.17;;;0.53;;
1026;SDS011;502;48.746;9.214;2023-03-14T03:40:10;1.20;;;0.60;;
1026;SDS011;502;48.746;9.214;2023-03-14T03:42:39;3.00;;;0.60;;
1026;SDS011;502;48.746;9.214;2023-03-14T03:45:08;1.20;;;0.57;;
1026;SDS011;502;48.746;9.214;2023-03-14T03:47:41;1.90;;;0.70;;
1026;SDS011;502;48.746;9.214;2023-03-14T03:50:10;2.00;;;0.60;;
1026;SDS011;502;48.746;9.214;2023-03-14T03:52:38;1.77;;;0.93;;
1026;SDS011;502;48.746;9.214;2023-03-14T03:55:04;2.60;;;0.93;;
1026;SDS011;502;48.746;9.214;2023-03-14T03:57:32;2.10;;;1.27;;
1026;SDS011;502;48.746;9.214;2023-03-14T03:59:58;1.50;;;0.60;;
1026;SDS011;502;48.746;9.214;2023-03-14T04:02:26;4.10;;;0.90;;
1026;SDS011;502;48.746;9.214;2023-03-14T04:04:53;1.47;;;0.50;;
1026;SDS011;502;48.746;9.214;2023-03-14T04:07:20;2.13;;;0.80;;
1026;SDS011;502;48.746;9.214;2023-03-14T04:09:49;2.13;;;1.13;;
1026;SDS011;502;48.746;9.214;2023-03-14T04:12:32;2.07;;;0.80;;
1026;SDS011;502;48.746;9.214;2023-03-14T04:15:16;1.10;;;0.80;;
1026;SDS011;502;48.746;9.214;2023-03-14T04:17:47;2.77;;;0.73;;
1026;SDS011;502;48.746;9.214;2023-03-14T04:20:14;1.70;;;0.70;;
1026;SDS011;502;48.746;9.214;2023-03-14T04:22:41;1.60;;;0.50;;
1026;SDS011;502;48.746;9.214;2023-03-14T04:25:10;1.77;;;0.70;;
1026;SDS011;502;48.746;9.214;2023-03-14T04:27:41;1.03;;;0.50;;
1026;SDS011;502;48.746;9.214;2023-03-14T04:30:17;2.47;;;0.70;;
1026;SDS011;502;48.746;9.214;2023-03-14T04:32:51;2.00;;;0.87;;
1026;SDS011;502;48.746;9.214;2023-03-14T04:35:19;2.70;;;0.80;;
1026;SDS011;502;48.746;9.214;2023-03-14T04:37:46;1.27;;;0.60;;
1026;SDS011;502;48.746;9.214;2023-03-14T04:40:16;1.90;;;0.80;;
1026;SDS011;502;48.746;9.214;2023-03-14T04:42:44;1.50;;;0.73;;
1026;SDS011;502;48.746;9.214;2023-03-14T04:45:11;1.33;;;0.60;;
1026;SDS011;502;48.746;9.214;2023-03-14T04:47:40;2.40;;;0.80;;
1026;SDS011;502;48.746;9.214;2023-03-14T04:50:10;1.83;;;0.83;;
1026;SDS011;502;48.746;9.214;2023-03-14T04:52:37;1.70;;;0.57;;
1026;SDS011;502;48.746;9.214;2023-03-14T04:55:04;1.97;;;0.57;;
1026;SDS011;502;48.746;9.214;2023-03-14T04:57:33;1.47;;;0.70;;
1026;SDS011;502;48.746;9.214;2023-03-14T04:59:59;1.97;;;1.00;;
1026;SDS011;502;48.746;9.214;2023-03-14T05:02:44;1.30;;;0.70;;
1026;SDS011;502;48.746;9.214;2023-03-14T05:05:20;2.07;;;0.87;;
1026;SDS011;502;48.746;9.214;2023-03-14T05:08:05;1.20;;;0.60;;
1026;SDS011;502;48.746;9.214;2023-03-14T05:10:52;3.67;;;1.27;;
1026;SDS011;502;48.746;9.214;2023-03-14T05:13:41;2.17;;;1.13;;
1026;SDS011;502;48.746;9.214;2023-03-14T05:16:31;2.47;;;0.80;;
1026;SDS011;502;48.746;9.214;2023-03-14T05:19:09;2.60;;;0.80;;
1026;SDS011;502;48.746;9.214;2023-03-14T05:21:55;1.67;;;0.53;;
1026;SDS011;502;48.746;9.214;2023-03-14T05:24:33;2.47;;;0.90;;
1026;SDS011;502;48.746;9.214;2023-03-14T05:27:11;1.50;;;0.60;;
1026;SDS011;502;48.746;9.214;2023-03-14T05:29:45;1.27;;;0.70;;
1026;SDS011;502;48.746;9.214;2023-03-14T05:32:36;2.90;;;0.73;;
1026;SDS011;502;48.746;9.214;2023-03-14T05:35:18;3.03;;;0.77;;
1026;SDS011;502;48.746;9.214;2023-03-14T05:37:55;1.80;;;0.77;;
1026;SDS011;502;48.746;9.214;2023-03-14T05:40:41;2.10;;;0.77;;
1026;SDS011;502;48.746;9.214;2023-03-14T05:43:15;2.40;;;0.80;;
1026;SDS011;502;48.746;9.214;2023-03-14T05:46:01;2.67;;;1.20;;
1026;SDS011;502;48.746;9.214;2023-03-14T05:48:28;1.50;;;0.80;;
1026;SDS011;502;48.746;9.214;2023-03-14T05:51:01;1.60;;;0.60;;
1026;SDS011;502;48.746;9.214;2023-03-14T05:53:46;2.40;;;0.80;;
1026;SDS011;502;48.746;9.214;2023-03-14T05:56:32;2.37;;;0.70;;
1026;SDS011;502;48.746;9.214;2023-03-14T05:59:11;1.30;;;0.50;;
1026;SDS011;502;48.746;9.214;2023-03-14T06:02:13;2.23;;;0.67;;
1026;SDS011;502;48.746;9.214;2023-03-14T06:04:50;1.57;;;0.57;;
1026;SDS011;502;48.746;9.214;2023-03-14T06:07:17;1.43;;;0.70;;
1026;SDS011;502;48.746;9.214;2023-03-14T06:09:44;3.07;;;1.00;;
1026;SDS011;502;48.746;9.214;2023-03-14T06:12:10;3.20;;;0.70;;
1026;SDS011;502;48.746;9.214;2023-03-14T06:14:41;2.23;;;0.70;;
1026;SDS011;502;48.746;9.214;2023-03-14T06:17:09;1.30;;;0.63;;
1026;SDS011;502;48.746;9.214;2023-03-14T06:19:45;2.20;;;0.70;;
1026;SDS011;502;48.746;9.214;2023-03-14T06:22:14;2.80;;;0.80;;
1026;SDS011;502;48.746;9.214;2023-03-14T06:24:43;2.47;;;0.90;;
1026;SDS011;502;48.746;9.214;2023-03-14T06:27:09;1.03;;;0.50;;
1026;SDS011;502;48.746;9.214;2023-03-14T06:29:37;1.70;;;0.40;;
1026;SDS011;502;48.746;9.214;2023-03-14T06:32:04;1.27;;;0.80;;
1026;SDS011;502;48.746;9.214;2023-03-14T06:34:31;5.17;;;0.90;;
1026;SDS011;502;48.746;9.214;2023-03-14T06:36:59;1.80;;;1.20;;
1026;SDS011;502;48.746;9.214;2023-03-14T06:39:27;2.13;;;0.70;;
1026;SDS011;502;48.746;9.214;2023-03-14T06:42:02;1.40;;;0.90;;
1026;SDS011;502;48.746;9.214;2023-03-14T06:44:29;2.47;;;1.13;;
1026;SDS011;502;48.746;9.214;2023-03-14T06:46:56;5.23;;;1.17;;
1026;SDS011;502;48.746;9.214;2023-03-14T06:49:23;2.60;;;1.30;;
1026;SDS011;502;48.746;9.214;2023-03-14T06:51:53;2.73;;;1.10;;
1026;SDS011;502;48.746;9.214;2023-03-14T06:54:21;1.80;;;0.60;;
1026;SDS011;502;48.746;9.214;2023-03-14T06:56:48;1.90;;;0.63;;
1026;SDS011;502;48.746;9.214;2023-03-14T06:59:15;2.00;;;0.90;;
1026;SDS011;502;48.746;9.214;2023-03-14T07:01:45;3.60;;;0.83;;
1026;SDS011;502;48.746;9.214;2023-03-14T07:04:13;1.40;;;0.70;;
1026;SDS011;502;48.746;9.214;2023-03-14T07:06:44;1.50;;;0.90;;
1026;SDS011;502;48.746;9.214;2023-03-14T07:09:11;1.47;;;0.90;;
1026;SDS011;502;48.746;9.214;2023-03-14T07:11:44;2.00;;;0.87;;
1026;SDS011;502;48.746;9.214;2023-03-14T07:14:11;2.13;;;0.77;;
1026;SDS011;502;48.746;9.214;2023-03-14T07:16:38;1.67;;;0.60;;
1026;SDS011;502;48.746;9.214;2023-03-14T07:19:06;1.90;;;0.90;;
1026;SDS011;502;48.746;9.214;2023-03-14T07:21:33;1.67;;;0.60;;
1026;SDS011;502;48.746;9.214;2023-03-14T07:24:04;1.50;;;0.60;;
1026;SDS011;502;48.746;9.214;2023-03-14T07:26:32;1.87;;;0.70;;
1026;SDS011;502;48.746;9.214;2023-03-14T07:29:00;1.20;;;0.50;;
1026;SDS011;502;48.746;9.214;2023-03-14T07:31:28;1.00;;;0.50;;
1026;SDS011;502;48.746;9.214;2023-03-14T07:33:55;1.50;;;0.60;;
1026;SDS011;502;48.746;9.214;2023-03-14T07:36:25;2.40;;;0.87;;
1026;SDS011;502;48.746;9.214;2023-03-14T07:38:52;1.57;;;0.70;;
1026;SDS011;502;48.746;9.214;2023-03-14T07:41:32;1.80;;;0.70;;
1026;SDS011;502;48.746;9.214;2023-03-14T07:44:38;2.33;;;0.70;;
1026;SDS011;502;48.746;9.214;2023-03-14T07:47:04;1.03;;;0.40;;
1026;SDS011;502;48.746;9.214;2023-03-14T07:49:31;2.70;;;0.60;;
1026;SDS011;502;48.746;9.214;2023-03-14T07:51:58;1.30;;;0.50;;
1026;SDS011;502;48.746;9.214;2023-03-14T07:54:25;1.37;;;0.40;;
1026;SDS011;502;48.746;9.214;2023-03-14T07:56:52;1.37;;;0.50;;
1026;SDS011;502;48.746;9.214;2023-03-14T07:59:18;2.37;;;0.63;;
1026;SDS011;502;48.746;9.214;2023-03-14T08:01:47;2.03;;;0.50;;
1026;SDS011;502;48.746;9.214;2023-03-14T08:04:14;1.00;;;0.40;;
1026;SDS011;502;48.746;9.214;2023-03-14T08:06:40;1.10;;;0.40;;
1026;SDS011;502;48.746;9.214;2023-03-14T08:09:07;1.50;;;0.37;;
1026;SDS011;502;48.746;9.214;2023-03-14T08:11:34;3.03;;;0.57;;
1026;SDS011;502;48.746;9.214;2023-03-14T08:14:00;2.07;;;0.40;;
1026;SDS011;502;48.746;9.214;2023-03-14T08:16:27;2.33;;;0.50;;
1026;SDS011;502;48.746;9.214;2023-03-14T08:18:58;1.20;;;0.50;;
1026;SDS011;502;48.746;9.214;2023-03-14T08:21:25;1.10;;;0.50;;
1026;SDS011;502;48.746;9.214;2023-03-14T08:23:52;1.60;;;0.63;;
1026;SDS011;502;48.746;9.214;2023-03-14T08:26:18;1.27;;;0.40;;
1026;SDS011;502;48.746;9.214;2023-03-14T08:28:46;1.80;;;0.50;;
1026;SDS011;502;48.746;9.214;2023-03-14T08:31:13;1.20;;;0.50;;
1026;SDS011;502;48.746;9.214;2023-03-14T08:33:40;2.20;;;0.40;;
1026;SDS011;502;48.746;9.214;2023-03-14T08:36:08;1.00;;;0.50;;
1026;SDS011;502;48.746;9.214;2023-03-14T08:38:36;0.83;;;0.40;;
1026;SDS011;502;48.746;9.214;2023-03-14T08:41:02;0.87;;;0.30;;
1026;SDS011;502;48.746;9.214;2023-03-14T08:43:30;1.43;;;0.43;;
1026;SDS011;502;48.746;9.214;2023-03-14T08:45:57;0.80;;;0.20;;
1026;SDS011;502;48.746;9.214;2023-03-14T08:48:24;0.90;;;0.37;;
1026;SDS011;502;48.746;9.214;2023-03-14T08:50:51;1.00;;;0.30;;
1026;SDS011;502;48.746;9.214;2023-03-14T08:53:19;1.23;;;0.40;;
1026;SDS011;502;48.746;9.214;2023-03-14T08:55:47;1.03;;;0.30;;
1026;SDS011;502;48.746;9.214;2023-03-14T08:58:16;0.70;;;0.30;;
1026;SDS011;502;48.746;9.214;2023-03-14T09:00:43;1.00;;;0.30;;
1026;SDS011;502;48.746;9.214;2023-03-14T09:03:10;1.30;;;0.30;;
1026;SDS011;502;48.746;9.214;2023-03-14T09:05:36;2.77;;;0.50;;
1026;SDS011;502;48.746;9.214;2023-03-14T09:08:03;0.83;;;0.30;;
1026;SDS011;502;48.746;9.214;2023-03-14T09:10:32;1.00;;;0.30;;
1026;SDS011;502;48.746;9.214;2023-03-14T09:12:58;0.90;;;0.40;;
1026;SDS011;502;48.746;9.214;2023-03-14T09:15:25;1.70;;;0.30;;
1026;SDS011;502;48.746;9.214;2023-03-14T09:17:52;1.57;;;0.40;;
1026;SDS011;502;48.746;9.214;2023-03-14T09:20:19;1.00;;;0.30;;
1026;SDS011;502;48.746;9.214;2023-03-14T09:22:46;1.03;;;0.40;;
1026;SDS011;502;48.746;9.214;2023-03-14T09:25:12;1.87;;;0.47;;
1026;SDS011;502;48.746;9.214;2023-03-14T09:27:40;0.90;;;0.20;;
1026;SDS011;502;48.746;9.214;2023-03-14T09:30:08;1.60;;;0.40;;
1026;SDS011;502;48.746;9.214;2023-03-14T09:32:35;1.90;;;0.37;;
1026;SDS011;502;48.746;9.214;2023-03-14T09:35:03;0.90;;;0.33;;
1026;SDS011;502;48.746;9.214;2023-03-14T09:37:30;1.87;;;0.40;;
1026;SDS011;502;48.746;9.214;2023-03-14T09:39:57;1.63;;;0.40;;
1026;SDS011;502;48.746;9.214;2023-03-14T09:42:25;1.10;;;0.37;;
1026;SDS011;502;48.746;9.214;2023-03-14T09:44:55;1.10;;;0.40;;
1026;SDS011;502;48.746;9.214;2023-03-14T09:47:23;0.90;;;0.40;;
1026;SDS011;502;48.746;9.214;2023-03-14T09:49:50;0.90;;;0.30;;
1026;SDS011;502;48.746;9.214;2023-03-14T09:52:17;1.40;;;0.57;;
1026;SDS011;502;48.746;9.214;2023-03-14T09:54:48;0.90;;;0.30;;
1026;SDS011;502;48.746;9.214;2023-03-14T09:57:17;1.10;;;0.30;;
1026;SDS011;502;48.746;9.214;2023-03-14T09:59:48;0.80;;;0.20;;
1026;SDS011;502;48.746;9.214;2023-03-14T10:02:18;1.47;;;0.30;;
1026;SDS011;502;48.746;9.214;2023-03-14T10:04:47;1.03;;;0.33;;
1026;SDS011;502;48.746;9.214;2023-03-14T10:07:15;1.37;;;0.33;;
1026;SDS011;502;48.746;9.214;2023-03-14T10:09:45;1.20;;;0.20;;
1026;SDS011;502;48.746;9.214;2023-03-14T10:12:13;1.10;;;0.30;;
1026;SDS011;502;48.746;9.214;2023-03-14T10:14:44;1.23;;;0.50;;
1026;SDS011;502;48.746;9.214;2023-03-14T10:17:13;0.80;;;0.40;;
1026;SDS011;502;48.746;9.214;2023-03-14T10:19:51;0.80;;;0.30;;
1026;SDS011;502;48.746;9.214;2023-03-14T10:22:19;0.70;;;0.20;;
1026;SDS011;502;48.746;9.214;2023-03-14T10:24:50;0.73;;;0.23;;
1026;SDS011;502;48.746;9.214;2023-03-14T10:27:19;1.00;;;0.40;;
1026;SDS011;502;48.746;9.214;2023-03-14T10:29:52;0.90;;;0.30;;
1026;SDS011;502;48.746;9.214;2023-03-14T10:32:20;1.03;;;0.40;;
1026;SDS011;502;48.746;9.214;2023-03-14T10:35:04;1.00;;;0.40;;
1026;SDS011;502;48.746;9.214;2023-03-14T10:37:32;1.00;;;0.30;;
1026;SDS011;502;48.746;9.214;2023-03-14T10:40:00;1.20;;;0.30;;
1026;SDS011;502;48.746;9.214;2023-03-14T10:42:30;0.70;;;0.30;;
1026;SDS011;502;48.746;9.214;2023-03-14T10:45:00;0.80;;;0.30;;
1026;SDS011;502;48.746;9.214;2023-03-14T10:47:28;0.97;;;0.30;;
1026;SDS011;502;48.746;9.214;2023-03-14T10:49:57;0.83;;;0.33;;
1026;SDS011;502;48.746;9.214;2023-03-14T10:52:48;0.90;;;0.40;;
1026;SDS011;502;48.746;9.214;2023-03-14T10:55:16;1.47;;;0.50;;
1026;SDS011;502;48.746;9.214;2023-03-14T10:57:43;1.77;;;0.30;;
1026;SDS011;502;48.746;9.214;2023-03-14T11:00:13;1.00;;;0.30;;
1026;SDS011;502;48.746;9.214;2023-03-14T11:02:45;0.80;;;0.30;;
1026;SDS011;502;48.746;9.214;2023-03-14T11:05:21;1.43;;;0.33;;
1026;SDS011;502;48.746;9.214;2023-03-14T11:07:53;1.07;;;0.37;;
1026;SDS011;502;48.746;9.214;2023-03-14T11:10:23;1.97;;;0.40;;
1026;SDS011;502;48.746;9.214;2023-03-14T11:12:59;1.10;;;0.30;;
1026;SDS011;502;48.746;9.214;2023-03-14T11:15:32;1.03;;;0.50;;
1026;SDS011;502;48.746;9.214;2023-03-14T11:18:14;0.90;;;0.40;;
1026;SDS011;502;48.746;9.214;2023-03-14T11:20:51;0.90;;;0.40;;
1026;SDS011;502;48.746;9.214;2023-03-14T11:23:20;0.70;;;0.20;;
1026;SDS011;502;48.746;9.214;2023-03-14T11:25:50;1.67;;;0.30;;
1026;SDS011;502;48.746;9.214;2023-03-14T11:28:23;1.10;;;0.43;;
1026;SDS011;502;48.746;9.214;2023-03-14T11:30:54;0.83;;;0.20;;
1026;SDS011;502;48.746;9.214;2023-03-14T11:33:23;1.10;;;0.40;;
1026;SDS011;502;48.746;9.214;2023-03-14T11:35:55;1.93;;;0.47;;
1026;SDS011;502;48.746;9.214;2023-03-14T11:38:29;0.70;;;0.27;;
1026;SDS011;502;48.746;9.214;2023-03-14T11:40:57;0.80;;;0.30;;
1026;SDS011;502;48.746;9.214;2023-03-14T11:43:26;0.90;;;0.30;;
1026;SDS011;502;48.746;9.214;2023-03-14T11:45:54;1.40;;;0.70;;
1026;SDS011;502;48.746;9.214;2023-03-14T11:48:29;0.90;;;0.30;;
1026;SDS011;502;48.746;9.214;2023-03-14T11:51:04;0.90;;;0.30;;
1026;SDS011;502;48.746;9.214;2023-03-14T11:53:41;1.30;;;0.30;;
1026;SDS011;502;48.746;9.214;2023-03-14T11:56:15;0.87;;;0.23;;
1026;SDS011;502;48.746;9.214;2023-03-14T11:58:46;0.90;;;0.30;;
1026;SDS011;502;48.746;9.214;2023-03-14T12:01:18;0.77;;;0.30;;
1026;SDS011;502;48.746;9.214;2023-03-14T12:03:50;0.80;;;0.30;;
1026;SDS011;502;48.746;9.214;2023-03-14T12:06:22;1.27;;;0.30;;
1026;SDS011;502;48.746;9.214;2023-03-14T12:08:52;0.80;;;0.30;;
1026;SDS011;502;48.746;9.214;2023-03-14T12:11:30;0.80;;;0.30;;
1026;SDS011;502;48.746;9.214;2023-03-14T12:14:00;0.90;;;0.43;;
1026;SDS011;502;48.746;9.214;2023-03-14T12:16:31;0.87;;;0.30;;
1026;SDS011;502;48.746;9.214;2023-03-14T12:19:24;1.13;;;0.37;;
1026;SDS011;502;48.746;9.214;2023-03-14T12:21:55;0.80;;;0.30;;
1026;SDS011;502;48.746;9.214;2023-03-14T12:24:24;0.70;;;0.20;;
1026;SDS011;502;48.746;9.214;2023-03-14T12:26:54;0.90;;;0.30;;
1026;SDS011;502;48.746;9.214;2023-03-14T12:29:21;0.70;;;0.30;;
1026;SDS011;502;48.746;9.214;2023-03-14T12:31:49;0.90;;;0.40;;
1026;SDS011;502;48.746;9.214;2023-03-14T12:34:27;0.80;;;0.30;;
1026;SDS011;502;48.746;9.214;2023-03-14T12:36:58;0.80;;;0.30;;
1026;SDS011;502;48.746;9.214;2023-03-14T12:42:12;1.00;;;0.50;;
1026;SDS011;502;48.746;9.214;2023-03-14T12:44:40;1.20;;;0.80;;
1026;SDS011;502;48.746;9.214;2023-03-14T12:50:15;1.07;;;0.50;;
1026;SDS011;502;48.746;9.214;2023-03-14T12:52:51;1.63;;;0.50;;
1026;SDS011;502;48.746;9.214;2023-03-14T12:55:33;1.60;;;0.70;;
1026;SDS011;502;48.746;9.214;2023-03-14T12:58:03;1.40;;;0.70;;
1026;SDS011;502;48.746;9.214;2023-03-14T13:00:35;1.10;;;0.60;;
1026;SDS011;502;48.746;9.214;2023-03-14T13:03:12;1.00;;;0.50;;
1026;SDS011;502;48.746;9.214;2023-03-14T13:05:51;1.00;;;0.60;;
1026;SDS011;502;48.746;9.214;2023-03-14T13:08:33;1.30;;;0.60;;
1026;SDS011;502;48.746;9.214;2023-03-14T13:11:02;1.67;;;0.50;;
1026;SDS011;502;48.746;9.214;2023-03-14T13:13:32;1.00;;;0.60;;
1026;SDS011;502;48.746;9.214;2023-03-14T13:16:01;1.37;;;0.60;;
1026;SDS011;502;48.746;9.214;2023-03-14T13:18:30;1.43;;;0.67;;
1026;SDS011;502;48.746;9.214;2023-03-14T13:21:03;1.10;;;0.70;;
1026;SDS011;502;48.746;9.214;2023-03-14T13:23:33;1.20;;;0.70;;
1026;SDS011;502;48.746;9.214;2023-03-14T13:26:01;1.67;;;0.70;;
1026;SDS011;502;48.746;9.214;2023-03-14T13:28:29;1.90;;;0.80;;
1026;SDS011;502;48.746;9.214;2023-03-14T13:30:57;2.20;;;0.80;;
1026;SDS011;502;48.746;9.214;2023-03-14T13:33:25;2.10;;;0.63;;
1026;SDS011;502;48.746;9.214;2023-03-14T13:35:54;1.53;;;0.80;;
1026;SDS011;502;48.746;9.214;2023-03-14T13:38:22;0.90;;;0.63;;
1026;SDS011;502;48.746;9.214;2023-03-14T13:40:51;3.80;;;0.70;;
1026;SDS011;502;48.746;9.214;2023-03-14T13:43:25;1.33;;;0.60;;
1026;SDS011;502;48.746;9.214;2023-03-14T13:45:56;1.20;;;0.60;;
1026;SDS011;502;48.746;9.214;2023-03-14T13:48:29;1.20;;;0.63;;
1026;SDS011;502;48.746;9.214;2023-03-14T13:50:58;1.53;;;0.80;;
1026;SDS011;502;48.746;9.214;2023-03-14T13:53:26;0.90;;;0.47;;
1026;SDS011;502;48.746;9.214;2023-03-14T13:55:54;1.30;;;0.70;;
1026;SDS011;502;48.746;9.214;2023-03-14T13:58:25;1.17;;;0.60;;
1026;SDS011;502;48.746;9.214;2023-03-14T14:00:54;1.40;;;0.50;;
1026;SDS011;502;48.746;9.214;2023-03-14T14:03:22;1.00;;;0.77;;
1026;SDS011;502;48.746;9.214;2023-03-14T14:05:49;2.53;;;0.63;;
1026;SDS011;502;48.746;9.214;2023-03-14T14:08:16;0.90;;;0.50;;
1026;SDS011;502;48.746;9.214;2023-03-14T14:10:42;2.30;;;0.60;;
1026;SDS011;502;48.746;9.214;2023-03-14T14:13:12;1.53;;;0.60;;
1026;SDS011;502;48.746;9.214;2023-03-14T14:15:41;0.83;;;0.40;;
1026;SDS011;502;48.746;9.214;2023-03-14T14:18:10;4.63;;;0.50;;
1026;SDS011;502;48.746;9.214;2023-03-14T14:20:39;3.53;;;0.73;;
1026;SDS011;502;48.746;9.214;2023-03-14T14:23:09;1.13;;;0.50;;
1026;SDS011;502;48.746;9.214;2023-03-14T14:25:37;1.20;;;0.77;;
1026;SDS011;502;48.746;9.214;2023-03-14T14:28:15;0.90;;;0.50;;
1026;SDS011;502;48.746;9.214;2023-03-14T14:30:44;2.03;;;0.70;;
1026;SDS011;502;48.746;9.214;2023-03-14T14:33:12;1.20;;;0.77;;
1026;SDS011;502;48.746;9.214;2023-03-14T14:35:48;2.73;;;0.63;;
1026;SDS011;502;48.746;9.214;2023-03-14T14:38:17;1.27;;;0.60;;
1026;SDS011;502;48.746;9.214;2023-03-14T14:40:45;1.63;;;0.60;;
1026;SDS011;502;48.746;9.214;2023-03-14T14:43:16;1.00;;;0.57;;
1026;SDS011;502;48.746;9.214;2023-03-14T14:45:45;1.10;;;0.63;;
1026;SDS011;502;48.746;9.214;2023-03-14T14:48:14;1.30;;;0.70;;
1026;SDS011;502;48.746;9.214;2023-03-14T14:50:48;1.10;;;0.50;;
1026;SDS011;502;48.746;9.214;2023-03-14T14:53:19;2.53;;;0.70;;
1026;SDS011;502;48.746;9.214;2023-03-14T14:55:49;1.87;;;0.60;;
1026;SDS011;502;48.746;9.214;2023-03-14T14:58:20;1.90;;;0.50;;
1026;SDS011;502;48.746;9.214;2023-03-14T15:00:51;1.20;;;0.57;;
1026;SDS011;502;48.746;9.214;2023-03-14T15:03:21;1.23;;;0.57;;
1026;SDS011;502;48.746;9.214;2023-03-14T15:05:48;1.10;;;0.80;;
1026;SDS011;502;48.746;9.214;2023-03-14T15:08:14;1.07;;;0.53;;
1026;SDS011;502;48.746;9.214;2023-03-14T15:10:41;2.90;;;0.70;;
1026;SDS011;502;48.746;9.214;2023-03-14T15:13:08;1.77;;;0.50;;
1026;SDS011;502;48.746;9.214;2023-03-14T15:15:36;1.50;;;0.80;;
1026;SDS011;502;48.746;9.214;2023-03-14T15:18:08;1.33;;;0.60;;
1026;SDS011;502;48.746;9.214;2023-03-14T15:20:38;2.17;;;0.80;;
1026;SDS011;502;48.746;9.214;2023-03-14T15:23:08;3.53;;;1.13;;
1026;SDS011;502;48.746;9.214;2023-03-14T15:25:36;2.40;;;0.80;;
1026;SDS011;502;48.746;9.214;2023-03-14T15:28:05;3.23;;;0.90;;
1026;SDS011;502;48.746;9.214;2023-03-14T15:30:38;1.53;;;0.80;;
1026;SDS011;502;48.746;9.214;2023-03-14T15:33:05;1.83;;;0.90;;
1026;SDS011;502;48.746;9.214;2023-03-14T15:35:34;2.37;;;0.83;;
1026;SDS011;502;48.746;9.214;2023-03-14T15:38:01;1.63;;;0.70;;
1026;SDS011;502;48.746;9.214;2023-03-14T15:40:28;1.90;;;0.80;;
1026;SDS011;502;48.746;9.214;2023-03-14T15:42:55;2.60;;;0.80;;
1026;SDS011;502;48.746;9.214;2023-03-14T15:45:21;1.30;;;0.90;;
1026;SDS011;502;48.746;9.214;2023-03-14T15:47:50;1.53;;;0.87;;
1026;SDS011;502;48.746;9.214;2023-03-14T15:50:16;1.10;;;0.70;;
1026;SDS011;502;48.746;9.214;2023-03-14T15:52:44;1.83;;;0.80;;
1026;SDS011;502;48.746;9.214;2023-03-14T15:55:11;2.57;;;1.00;;